createdAt,value
2023-03-16T00:01:24.241Z,0.88
2023-03-16T00:03:52.022Z,0.88
2023-03-16T00:06:19.781Z,1.10
2023-03-16T00:08:47.056Z,0.90
2023-03-16T00:11:14.293Z,0.80
2023-03-16T00:13:42.766Z,1.05
2023-03-16T00:16:10.120Z,0.85
2023-03-16T00:18:38.866Z,0.93
2023-03-16T00:21:06.959Z,0.70
2023-03-16T00:23:35.956Z,0.57
2023-03-16T00:26:08.271Z,0.55
2023-03-16T00:28:36.211Z,0.80
2023-03-16T00:31:08.940Z,0.68
2023-03-16T00:33:36.193Z,0.70
2023-03-16T00:36:09.262Z,0.85
2023-03-16T00:38:38.429Z,0.60
2023-03-16T00:41:08.074Z,0.80
2023-03-16T00:43:40.975Z,0.70
2023-03-16T00:46:14.043Z,1.23
2023-03-16T00:48:43.433Z,0.93
2023-03-16T00:51:13.392Z,1.05
2023-03-16T00:53:43.156Z,1.40
2023-03-16T00:56:11.583Z,1.80
2023-03-16T00:58:40.172Z,2.33
2023-03-16T01:01:10.782Z,2.25
2023-03-16T01:03:38.238Z,2.38
2023-03-16T01:06:15.048Z,2.83
2023-03-16T01:08:43.531Z,2.90
2023-03-16T01:11:13.824Z,2.80
2023-03-16T01:13:41.085Z,2.88
2023-03-16T01:16:10.029Z,2.45
2023-03-16T01:18:37.445Z,2.35
2023-03-16T01:21:07.801Z,2.50
2023-03-16T01:23:36.535Z,2.20
2023-03-16T01:26:04.136Z,2.42
2023-03-16T01:28:33.424Z,2.30
2023-03-16T01:31:04.394Z,2.08
2023-03-16T01:33:33.793Z,2.15
2023-03-16T01:36:08.284Z,1.80
2023-03-16T01:38:45.882Z,1.45
2023-03-16T01:41:14.036Z,1.90
2023-03-16T01:43:43.600Z,1.88
2023-03-16T01:46:15.465Z,1.73
2023-03-16T01:49:06.886Z,1.75
2023-03-16T01:51:36.712Z,1.63
2023-03-16T01:54:14.701Z,1.52
2023-03-16T01:56:58.021Z,1.73
2023-03-16T01:59:30.680Z,1.60
2023-03-16T02:01:59.108Z,1.38
2023-03-16T02:04:42.194Z,1.60
2023-03-16T02:07:11.259Z,1.95
2023-03-16T02:09:42.795Z,1.60
2023-03-16T02:12:17.862Z,1.38
2023-03-16T02:14:50.382Z,1.35
2023-03-16T02:17:21.493Z,1.50
2023-03-16T02:19:58.555Z,1.50
2023-03-16T02:22:26.306Z,1.63
2023-03-16T02:24:54.837Z,1.50
2023-03-16T02:27:53.142Z,1.63
2023-03-16T02:30:21.679Z,1.40
2023-03-16T02:32:59.213Z,1.35
2023-03-16T02:35:26.575Z,1.10
2023-03-16T02:37:54.143Z,1.30
2023-03-16T02:40:30.262Z,1.90
2023-03-16T02:43:12.843Z,1.20
2023-03-16T02:45:53.629Z,1.08
2023-03-16T02:48:58.553Z,1.10
2023-03-16T02:51:25.900Z,0.80
2023-03-16T02:53:55.093Z,0.80
2023-03-16T02:56:23.493Z,0.90
2023-03-16T02:58:50.955Z,0.80
2023-03-16T03:01:21.663Z,1.00
2023-03-16T03:03:49.848Z,0.95
2023-03-16T03:06:17.261Z,1.08
2023-03-16T03:08:44.528Z,0.70
2023-03-16T03:11:12.691Z,0.88
2023-03-16T03:13:40.142Z,1.00
2023-03-16T03:16:14.065Z,0.85
2023-03-16T03:18:41.511Z,0.85
2023-03-16T03:21:08.776Z,0.82
2023-03-16T03:23:36.077Z,1.00
2023-03-16T03:26:04.233Z,0.70
2023-03-16T03:28:34.185Z,0.68
2023-03-16T03:31:01.787Z,0.88
2023-03-16T03:33:29.367Z,0.68
2023-03-16T03:35:58.789Z,0.65
2023-03-16T03:38:30.189Z,0.80
2023-03-16T03:41:00.524Z,0.90
2023-03-16T03:43:31.769Z,0.65
2023-03-16T03:46:00.824Z,0.60
2023-03-16T03:48:28.812Z,0.70
2023-03-16T03:50:57.823Z,0.80
2023-03-16T03:53:45.991Z,0.70
2023-03-16T03:56:26.024Z,0.70
2023-03-16T03:58:53.816Z,0.70
2023-03-16T04:01:34.424Z,0.60
2023-03-16T04:04:01.776Z,0.65
2023-03-16T04:06:29.090Z,0.80
2023-03-16T04:08:56.528Z,0.70
2023-03-16T04:11:27.046Z,0.70
2023-03-16T04:13:54.586Z,0.60
2023-03-16T04:16:22.334Z,0.80
2023-03-16T04:18:54.347Z,0.75
2023-03-16T04:21:24.712Z,0.60
2023-03-16T04:23:55.363Z,0.82
2023-03-16T04:26:34.273Z,0.70
2023-03-16T04:29:03.597Z,0.63
2023-03-16T04:31:32.547Z,0.50
2023-03-16T04:34:00.276Z,0.90
2023-03-16T04:36:28.097Z,0.65
2023-03-16T04:38:56.055Z,0.80
2023-03-16T04:41:24.207Z,0.82
2023-03-16T04:43:59.999Z,1.00
2023-03-16T04:46:28.086Z,0.80
2023-03-16T04:48:58.342Z,0.80
2023-03-16T04:51:27.468Z,0.85
2023-03-16T04:54:04.717Z,0.75
2023-03-16T04:56:36.974Z,0.73
2023-03-16T04:59:10.725Z,0.90
2023-03-16T05:02:01.838Z,0.70
2023-03-16T05:04:29.169Z,0.80
2023-03-16T05:06:56.564Z,1.02
2023-03-16T05:09:28.372Z,0.70
2023-03-16T05:11:56.163Z,0.73
2023-03-16T05:14:23.639Z,1.05
2023-03-16T05:17:06.005Z,1.25
2023-03-16T05:19:33.694Z,1.05
2023-03-16T05:22:00.911Z,1.48
2023-03-16T05:24:28.163Z,1.08
2023-03-16T05:26:56.006Z,1.13
2023-03-16T05:29:26.557Z,1.02
2023-03-16T05:31:54.079Z,0.90
2023-03-16T05:34:23.813Z,1.27
2023-03-16T05:36:52.470Z,1.17
2023-03-16T05:39:23.433Z,1.17
2023-03-16T05:41:51.143Z,0.85
2023-03-16T05:44:29.344Z,1.48
2023-03-16T05:47:05.651Z,1.15
2023-03-16T05:49:36.687Z,1.05
2023-03-16T05:52:08.218Z,1.10
2023-03-16T05:54:36.649Z,1.40
2023-03-16T05:57:05.564Z,1.40
2023-03-16T05:59:33.473Z,1.50
2023-03-16T06:02:00.880Z,1.63
2023-03-16T06:04:28.374Z,1.33
2023-03-16T06:06:55.777Z,1.38
2023-03-16T06:09:27.010Z,1.40
2023-03-16T06:11:54.530Z,1.33
2023-03-16T06:14:23.150Z,1.35
2023-03-16T06:16:51.666Z,1.30
2023-03-16T06:19:18.931Z,1.23
2023-03-16T06:21:51.004Z,1.30
2023-03-16T06:24:18.963Z,1.40
2023-03-16T06:26:46.366Z,1.17
2023-03-16T06:29:14.628Z,1.20
2023-03-16T06:31:42.789Z,1.77
2023-03-16T06:34:11.553Z,1.38
2023-03-16T06:36:39.760Z,1.55
2023-03-16T06:39:10.864Z,1.70
2023-03-16T06:41:42.708Z,1.80
2023-03-16T06:44:12.100Z,1.35
2023-03-16T06:46:46.875Z,1.65
2023-03-16T06:49:14.162Z,2.10
2023-03-16T06:51:41.926Z,2.15
2023-03-16T06:54:09.371Z,2.00
2023-03-16T06:56:39.962Z,1.88
2023-03-16T06:59:07.489Z,2.03
2023-03-16T07:01:37.120Z,1.58
2023-03-16T07:04:04.610Z,1.80
2023-03-16T07:06:34.596Z,1.45
2023-03-16T07:09:02.108Z,1.23
2023-03-16T07:11:32.577Z,1.33
2023-03-16T07:14:00.031Z,1.40
2023-03-16T07:16:28.658Z,1.60
2023-03-16T07:18:58.766Z,1.17
2023-03-16T07:21:26.281Z,1.30
2023-03-16T07:23:55.678Z,1.20
2023-03-16T07:26:26.324Z,1.10
2023-03-16T07:28:59.322Z,1.20
2023-03-16T07:31:27.515Z,1.20
2023-03-16T07:33:57.532Z,1.58
2023-03-16T07:36:36.288Z,1.20
2023-03-16T07:39:06.187Z,1.25
2023-03-16T07:41:35.120Z,1.23
2023-03-16T07:44:15.623Z,1.25
2023-03-16T07:46:47.214Z,1.08
2023-03-16T07:49:16.966Z,1.40
2023-03-16T07:51:46.336Z,1.15
2023-03-16T07:54:15.654Z,1.23
2023-03-16T07:56:49.618Z,1.23
2023-03-16T07:59:35.783Z,1.48
2023-03-16T08:02:03.991Z,1.25
2023-03-16T08:04:32.165Z,1.23
2023-03-16T08:07:02.067Z,0.90
2023-03-16T08:09:42.509Z,1.30
2023-03-16T08:12:13.126Z,1.40
2023-03-16T08:14:40.845Z,1.05
2023-03-16T08:17:15.300Z,1.25
2023-03-16T08:19:44.135Z,1.13
2023-03-16T08:22:12.376Z,1.05
2023-03-16T08:24:43.316Z,1.13
2023-03-16T08:27:13.237Z,1.23
2023-03-16T08:29:44.367Z,1.23
2023-03-16T08:32:15.477Z,1.05
2023-03-16T08:34:45.992Z,1.33
2023-03-16T08:37:14.532Z,1.35
2023-03-16T08:39:42.360Z,1.10
2023-03-16T08:42:15.226Z,1.27
2023-03-16T08:44:47.786Z,1.10
2023-03-16T08:47:16.102Z,0.90
2023-03-16T08:49:45.254Z,1.65
2023-03-16T08:52:15.907Z,1.40
2023-03-16T08:54:59.779Z,1.20
2023-03-16T08:57:29.096Z,1.30
2023-03-16T08:59:56.284Z,1.40
2023-03-16T09:02:24.366Z,1.30
2023-03-16T09:04:52.734Z,1.23
2023-03-16T09:07:20.427Z,1.30
2023-03-16T09:09:47.709Z,1.02
2023-03-16T09:12:14.934Z,1.00
2023-03-16T09:14:42.516Z,1.33
2023-03-16T09:17:11.589Z,1.42
2023-03-16T09:19:57.757Z,1.05
2023-03-16T09:22:26.439Z,1.20
2023-03-16T09:24:53.747Z,1.42
2023-03-16T09:27:21.084Z,1.00
2023-03-16T09:29:49.390Z,1.15
2023-03-16T09:32:16.834Z,1.20
2023-03-16T09:34:44.728Z,1.15
2023-03-16T09:37:12.115Z,0.88
2023-03-16T09:39:39.648Z,0.82
2023-03-16T09:42:36.642Z,1.20
2023-03-16T09:45:38.448Z,0.90
2023-03-16T09:48:06.511Z,1.38
2023-03-16T09:50:48.145Z,1.20
2023-03-16T09:53:23.321Z,1.30
2023-03-16T09:55:59.070Z,1.42
2023-03-16T09:58:27.168Z,1.25
2023-03-16T10:01:23.065Z,1.50
2023-03-16T10:03:57.181Z,1.55
2023-03-16T10:06:26.540Z,1.42
2023-03-16T10:09:21.225Z,1.83
2023-03-16T10:11:52.818Z,1.67
2023-03-16T10:14:29.395Z,1.20
2023-03-16T10:17:10.061Z,1.40
2023-03-16T10:20:01.206Z,1.48
2023-03-16T10:22:34.767Z,1.27
2023-03-16T10:25:14.725Z,1.60
2023-03-16T10:27:45.214Z,1.50
2023-03-16T10:30:21.648Z,1.17
2023-03-16T10:32:49.560Z,1.38
2023-03-16T10:35:22.638Z,1.50
2023-03-16T10:37:49.968Z,1.73
2023-03-16T10:40:20.262Z,1.52
2023-03-16T10:42:47.831Z,1.80
2023-03-16T10:45:28.891Z,1.58
2023-03-16T10:48:12.647Z,1.92
2023-03-16T10:50:41.451Z,1.95
2023-03-16T10:53:35.502Z,1.95
2023-03-16T10:56:13.065Z,1.90
2023-03-16T10:58:43.169Z,2.15
2023-03-16T11:01:23.745Z,2.15
2023-03-16T11:03:55.082Z,2.00
2023-03-16T11:06:30.451Z,1.98
2023-03-16T11:09:19.890Z,1.90
2023-03-16T11:11:49.341Z,2.00
2023-03-16T11:14:21.000Z,1.88
2023-03-16T11:17:04.261Z,1.80
2023-03-16T11:19:39.577Z,1.75
2023-03-16T11:22:19.330Z,2.40
2023-03-16T11:25:20.403Z,2.10
2023-03-16T11:28:12.971Z,1.98
2023-03-16T11:31:01.408Z,1.50
2023-03-16T11:33:31.031Z,1.60
2023-03-16T11:36:10.806Z,1.20
2023-03-16T11:38:56.725Z,1.42
2023-03-16T11:41:42.841Z,1.40
2023-03-16T11:44:37.696Z,1.60
2023-03-16T11:47:43.140Z,1.80
2023-03-16T11:50:44.605Z,2.08
2023-03-16T11:53:19.863Z,1.73
2023-03-16T11:56:04.151Z,1.83
2023-03-16T11:58:50.923Z,2.20
2023-03-16T12:01:58.149Z,2.25
2023-03-16T12:04:49.435Z,1.60
2023-03-16T12:07:45.680Z,1.80
2023-03-16T12:13:22.888Z,1.83
2023-03-16T12:15:56.917Z,2.05
2023-03-16T12:18:33.147Z,2.28
2023-03-16T12:21:07.209Z,1.88
2023-03-16T12:23:43.731Z,1.90
2023-03-16T12:26:12.416Z,1.90
2023-03-16T12:28:42.116Z,2.13
2023-03-16T12:31:12.480Z,2.03
2023-03-16T12:34:14.132Z,1.98
2023-03-16T12:37:10.217Z,2.38
2023-03-16T12:40:07.587Z,2.00
2023-03-16T12:42:41.563Z,2.40
2023-03-16T12:45:15.799Z,2.22
2023-03-16T12:48:16.126Z,2.42
2023-03-16T12:50:58.718Z,2.22
2023-03-16T12:53:56.082Z,2.53
2023-03-16T12:56:37.384Z,1.95
2023-03-16T12:59:06.748Z,2.00
2023-03-16T13:01:42.430Z,1.85
2023-03-16T13:04:20.335Z,2.00
2023-03-16T13:07:01.083Z,1.92
2023-03-16T13:09:32.547Z,1.60
2023-03-16T13:12:04.896Z,2.20
2023-03-16T13:14:44.201Z,1.90
2023-03-16T13:17:24.149Z,2.03
2023-03-16T13:20:06.599Z,2.22
2023-03-16T13:22:46.574Z,1.95
2023-03-16T13:25:37.894Z,1.95
2023-03-16T13:28:10.887Z,1.83
2023-03-16T13:30:45.242Z,1.90
2023-03-16T13:33:25.676Z,2.42
2023-03-16T13:35:55.985Z,1.95
2023-03-16T13:38:31.386Z,1.80
2023-03-16T13:41:18.899Z,1.88
2023-03-16T13:43:46.647Z,2.10
2023-03-16T13:46:19.495Z,1.85
2023-03-16T13:48:50.265Z,2.00
2023-03-16T13:51:22.683Z,2.00
2023-03-16T13:53:51.197Z,1.90
2023-03-16T13:56:29.298Z,1.98
2023-03-16T13:58:58.450Z,2.10
2023-03-16T14:01:32.143Z,2.28
2023-03-16T14:04:08.682Z,2.28
2023-03-16T14:06:36.725Z,2.08
2023-03-16T14:09:15.258Z,2.10
2023-03-16T14:11:44.636Z,2.10
2023-03-16T14:14:17.172Z,1.90
2023-03-16T14:16:44.669Z,2.10
2023-03-16T14:19:19.226Z,2.15
2023-03-16T14:21:47.025Z,2.08
2023-03-16T14:24:35.850Z,2.20
2023-03-16T14:27:45.269Z,2.17
2023-03-16T14:30:18.320Z,2.28
2023-03-16T14:33:26.333Z,2.30
2023-03-16T14:35:59.463Z,2.17
2023-03-16T14:38:32.942Z,2.00
2023-03-16T14:41:25.834Z,1.90
2023-03-16T14:43:59.001Z,2.10
2023-03-16T14:46:33.007Z,1.90
2023-03-16T14:49:11.237Z,2.53
2023-03-16T14:51:40.733Z,2.30
2023-03-16T14:54:21.654Z,2.25
2023-03-16T14:56:51.677Z,2.50
2023-03-16T14:59:19.619Z,2.50
2023-03-16T15:01:48.562Z,2.28
2023-03-16T15:04:25.886Z,2.22
2023-03-16T15:06:54.037Z,2.17
2023-03-16T15:09:29.990Z,2.30
2023-03-16T15:11:58.057Z,2.70
2023-03-16T15:14:43.907Z,2.65
2023-03-16T15:17:11.532Z,2.35
2023-03-16T15:19:38.826Z,2.40
2023-03-16T15:22:06.999Z,2.60
2023-03-16T15:24:34.424Z,2.63
2023-03-16T15:27:01.812Z,2.40
2023-03-16T15:29:29.034Z,2.42
2023-03-16T15:31:56.295Z,2.72
2023-03-16T15:34:23.686Z,2.80
2023-03-16T15:36:51.707Z,2.47
2023-03-16T15:39:24.864Z,2.83
2023-03-16T15:41:52.568Z,2.38
2023-03-16T15:44:19.748Z,2.50
2023-03-16T15:46:47.882Z,3.05
2023-03-16T15:49:15.274Z,2.53
2023-03-16T15:51:42.605Z,2.30
2023-03-16T15:54:12.053Z,2.30
2023-03-16T15:56:53.921Z,2.47
2023-03-16T15:59:23.572Z,2.72
2023-03-16T16:01:51.730Z,2.25
2023-03-16T16:04:21.527Z,2.38
2023-03-16T16:06:50.813Z,2.50
2023-03-16T16:09:18.128Z,2.80
2023-03-16T16:11:47.171Z,2.20
2023-03-16T16:14:16.856Z,2.53
2023-03-16T16:16:45.969Z,2.35
2023-03-16T16:19:16.873Z,2.78
2023-03-16T16:21:44.162Z,2.58
2023-03-16T16:24:11.554Z,2.50
2023-03-16T16:26:55.587Z,2.63
2023-03-16T16:29:25.634Z,2.65
2023-03-16T16:31:53.199Z,2.53
2023-03-16T16:34:24.287Z,2.72
2023-03-16T16:36:52.253Z,2.95
2023-03-16T16:39:19.747Z,2.50
2023-03-16T16:41:49.916Z,2.70
2023-03-16T16:44:23.588Z,2.47
2023-03-16T16:46:52.032Z,2.47
2023-03-16T16:49:23.718Z,2.88
2023-03-16T16:51:52.527Z,3.55
2023-03-16T16:54:29.208Z,3.35
2023-03-16T16:56:58.405Z,3.15
2023-03-16T16:59:34.062Z,3.10
2023-03-16T17:02:04.027Z,2.85
2023-03-16T17:04:31.277Z,3.03
2023-03-16T17:07:02.069Z,2.70
2023-03-16T17:09:30.289Z,2.88
2023-03-16T17:12:00.080Z,3.60
2023-03-16T17:14:31.398Z,3.25
2023-03-16T17:17:05.304Z,3.35
2023-03-16T17:19:32.958Z,3.10
2023-03-16T17:22:01.334Z,3.30
2023-03-16T17:24:29.584Z,3.78
2023-03-16T17:27:00.610Z,3.17
2023-03-16T17:29:31.941Z,3.10
2023-03-16T17:32:01.276Z,3.00
2023-03-16T17:34:31.987Z,3.38
2023-03-16T17:36:59.293Z,3.47
2023-03-16T17:39:29.539Z,3.30
2023-03-16T17:42:07.044Z,3.60
2023-03-16T17:44:37.976Z,3.70
2023-03-16T17:47:23.658Z,3.90
2023-03-16T17:49:51.849Z,3.60
2023-03-16T17:52:23.141Z,3.40
2023-03-16T17:54:51.981Z,3.47
2023-03-16T17:57:33.152Z,3.40
2023-03-16T18:00:01.552Z,3.95
2023-03-16T18:02:51.701Z,4.03
2023-03-16T18:05:23.664Z,4.13
2023-03-16T18:07:51.960Z,3.80
2023-03-16T18:10:26.209Z,3.80
2023-03-16T18:12:58.740Z,3.53
2023-03-16T18:15:29.349Z,3.88
2023-03-16T18:17:57.525Z,3.15
2023-03-16T18:20:32.823Z,3.67
2023-03-16T18:23:01.886Z,3.22
2023-03-16T18:25:40.740Z,3.17
2023-03-16T18:28:09.786Z,2.78
2023-03-16T18:30:38.961Z,3.30
2023-03-16T18:33:08.285Z,3.25
2023-03-16T18:35:38.313Z,3.60
2023-03-16T18:38:16.941Z,3.60
2023-03-16T18:40:44.205Z,3.22
2023-03-16T18:43:18.126Z,3.45
2023-03-16T18:45:46.287Z,3.03
2023-03-16T18:48:34.844Z,3.20
2023-03-16T18:51:02.405Z,3.70
2023-03-16T18:53:29.736Z,3.53
2023-03-16T18:55:57.725Z,3.33
2023-03-16T18:58:25.590Z,3.88
2023-03-16T19:00:56.654Z,3.38
2023-03-16T19:03:38.983Z,3.05
2023-03-16T19:06:06.399Z,3.42
2023-03-16T19:08:34.278Z,3.60
2023-03-16T19:11:03.194Z,2.97
2023-03-16T19:13:30.428Z,3.13
2023-03-16T19:15:57.878Z,3.53
2023-03-16T19:18:26.073Z,3.25
2023-03-16T19:20:55.205Z,3.60
2023-03-16T19:23:28.360Z,3.22
2023-03-16T19:25:56.424Z,3.50
2023-03-16T19:28:33.564Z,3.20
2023-03-16T19:31:03.128Z,3.80
2023-03-16T19:33:30.601Z,3.47
2023-03-16T19:35:58.422Z,3.28
2023-03-16T19:38:26.396Z,2.90
2023-03-16T19:40:59.464Z,2.83
2023-03-16T19:43:28.465Z,2.58
2023-03-16T19:45:56.446Z,3.25
2023-03-16T19:48:33.261Z,3.30
2023-03-16T19:51:01.280Z,3.20
2023-03-16T19:53:28.545Z,2.80
2023-03-16T19:55:55.944Z,3.08
2023-03-16T19:58:38.359Z,3.00
2023-03-16T20:01:12.405Z,3.70
2023-03-16T20:03:39.639Z,3.10
2023-03-16T20:06:09.654Z,3.22
2023-03-16T20:08:36.847Z,3.10
2023-03-16T20:11:08.670Z,2.85
2023-03-16T20:13:36.269Z,2.97
2023-03-16T20:16:03.786Z,2.80
2023-03-16T20:18:31.159Z,3.47
2023-03-16T20:20:58.450Z,2.97
2023-03-16T20:23:28.082Z,2.75
2023-03-16T20:26:01.367Z,3.08
2023-03-16T20:28:37.974Z,3.08
2023-03-16T20:31:08.076Z,3.40
2023-03-16T20:33:35.484Z,3.15
2023-03-16T20:36:03.141Z,3.47
2023-03-16T20:38:30.724Z,3.75
2023-03-16T20:40:58.669Z,3.83
2023-03-16T20:43:32.215Z,4.60
2023-03-16T20:46:02.649Z,4.00
2023-03-16T20:48:30.634Z,4.40
2023-03-16T20:50:59.928Z,3.90
2023-03-16T20:53:30.349Z,3.38
2023-03-16T20:55:58.469Z,3.70
2023-03-16T20:58:28.169Z,3.40
2023-03-16T21:01:01.053Z,3.88
2023-03-16T21:03:30.822Z,3.63
2023-03-16T21:05:59.951Z,4.13
2023-03-16T21:08:27.886Z,3.60
2023-03-16T21:10:57.289Z,3.45
2023-03-16T21:13:34.125Z,3.65
2023-03-16T21:16:03.215Z,3.80
2023-03-16T21:18:30.889Z,4.25
2023-03-16T21:20:58.803Z,4.75
2023-03-16T21:23:26.157Z,3.90
2023-03-16T21:25:59.454Z,4.00
2023-03-16T21:28:29.021Z,3.85
2023-03-16T21:30:57.701Z,3.78
2023-03-16T21:33:34.873Z,4.00
2023-03-16T21:36:03.941Z,3.08
2023-03-16T21:38:31.895Z,3.17
2023-03-16T21:40:59.734Z,3.70
2023-03-16T21:43:27.674Z,5.63
2023-03-16T21:45:55.166Z,4.97
2023-03-16T21:48:28.158Z,4.05
2023-03-16T21:50:57.351Z,3.47
2023-03-16T21:53:33.505Z,11.75
2023-03-16T21:56:01.591Z,3.30
2023-03-16T21:58:31.627Z,3.33
2023-03-16T22:00:59.734Z,3.65
2023-03-16T22:03:44.233Z,3.85
2023-03-16T22:06:17.206Z,6.32
2023-03-16T22:08:44.972Z,3.15
2023-03-16T22:11:22.516Z,3.17
2023-03-16T22:13:54.462Z,3.28
2023-03-16T22:16:25.099Z,3.30
2023-03-16T22:18:58.644Z,3.28
2023-03-16T22:21:36.618Z,3.58
2023-03-16T22:24:07.108Z,3.58
2023-03-16T22:26:34.404Z,3.78
2023-03-16T22:29:02.142Z,3.42
2023-03-16T22:31:33.523Z,3.10
2023-03-16T22:34:03.018Z,3.58
2023-03-16T22:36:31.638Z,3.50
2023-03-16T22:39:03.494Z,3.60
2023-03-16T22:41:31.300Z,3.58
2023-03-16T22:43:59.532Z,7.22
2023-03-16T22:46:28.585Z,4.20
2023-03-16T22:48:56.989Z,3.53
2023-03-16T22:51:32.369Z,3.60
2023-03-16T22:54:03.818Z,3.35
2023-03-16T22:56:34.574Z,3.72
2023-03-16T22:59:05.769Z,4.47
2023-03-16T23:01:41.297Z,4.72
2023-03-16T23:04:16.307Z,4.03
2023-03-16T23:06:43.826Z,3.30
2023-03-16T23:09:13.693Z,3.63
2023-03-16T23:11:43.583Z,3.75
2023-03-16T23:14:21.162Z,3.58
2023-03-16T23:16:50.158Z,3.72
2023-03-16T23:19:26.278Z,3.75
2023-03-16T23:21:55.584Z,4.10
2023-03-16T23:24:23.255Z,2.97
2023-03-16T23:26:52.692Z,3.67
2023-03-16T23:29:21.591Z,3.47
2023-03-16T23:31:49.246Z,2.95
2023-03-16T23:34:19.174Z,3.40
2023-03-16T23:36:46.787Z,3.75
2023-03-16T23:39:14.293Z,3.33
2023-03-16T23:41:47.476Z,3.47
2023-03-16T23:44:21.936Z,2.92
2023-03-16T23:46:49.920Z,3.28
2023-03-16T23:49:30.582Z,3.20
2023-03-16T23:51:59.461Z,2.85
2023-03-16T23:54:29.820Z,2.70
2023-03-16T23:56:57.262Z,4.00
2023-03-16T23:59:25.441Z,4.57
